Time;durP1;ratioP1;P1;durP2;ratioP2;P2;SDS_P1;SDS_P2;PMS_P1;PMS_P2;Temp;Humidity;BMP_temperature;BMP_pressure;BME280_temperature;BME280_humidity;BME280_pressure;Samples;Min_cycle;Max_cycle;Signal;HPM_P1;HPM_P2
2023/01/01 00:01:22;;;;;;;14.50;3.00;;;;;;;14.71;58.20;100781.06;5052131;28;20048;-56
2023/01/01 00:03:52;;;;;;;13.00;3.65;;;;;;;14.70;58.39;100777.50;5051299;28;20059;-57
2023/01/01 00:06:18;;;;;;;15.20;3.00;;;;;;;14.68;58.24;100763.47;5047169;28;20029;-57
2023/01/01 00:08:43;;;;;;;14.27;3.30;;;;;;;14.70;57.74;100774.00;5051612;28;20111;-57
2023/01/01 00:11:10;;;;;;;13.80;3.50;;;;;;;14.70;57.88;100780.19;5051605;28;20025;-55
2023/01/01 00:13:37;;;;;;;9.55;3.20;;;;;;;14.69;57.81;100785.69;5044470;28;20041;-56
2023/01/01 00:16:06;;;;;;;18.38;3.70;;;;;;;14.68;57.22;100784.84;5039669;28;20056;-56
2023/01/01 00:18:32;;;;;;;10.35;3.42;;;;;;;14.70;56.66;100777.50;5039037;28;20051;-57
2023/01/01 00:21:05;;;;;;;15.95;4.63;;;;;;;14.72;57.13;100804.09;5048489;28;20033;-56
2023/01/01 00:23:31;;;;;;;14.65;3.15;;;;;;;14.70;57.21;100790.03;5041850;28;20048;-56
2023/01/01 00:25:57;;;;;;;11.73;3.25;;;;;;;14.70;55.81;100793.56;5035516;28;20026;-56
2023/01/01 00:28:22;;;;;;;11.07;3.47;;;;;;;14.73;55.93;100798.63;5046155;28;20076;-56
2023/01/01 00:30:47;;;;;;;9.80;3.00;;;;;;;14.76;56.09;100787.63;5047236;28;20053;-53
2023/01/01 00:33:13;;;;;;;13.30;3.33;;;;;;;14.77;55.89;100801.84;5044960;28;20044;-53
2023/01/01 00:35:38;;;;;;;9.90;3.20;;;;;;;14.74;56.43;100778.94;5045829;28;20021;-57
2023/01/01 00:38:03;;;;;;;9.70;2.92;;;;;;;14.78;56.01;100780.31;5037290;28;20179;-56
2023/01/01 00:40:29;;;;;;;8.93;3.42;;;;;;;14.77;56.82;100783.13;5050077;28;20036;-56
2023/01/01 00:42:54;;;;;;;9.40;3.38;;;;;;;14.75;56.76;100785.94;5042599;28;20040;-54
2023/01/01 00:45:20;;;;;;;7.95;3.38;;;;;;;14.75;56.37;100796.63;5036772;28;20032;-53
2023/01/01 00:47:45;;;;;;;11.45;3.50;;;;;;;14.77;56.51;100775.97;5048443;28;20135;-57
2023/01/01 00:50:10;;;;;;;11.98;3.15;;;;;;;14.73;56.95;100777.22;5046396;28;20498;-58
2023/01/01 00:52:36;;;;;;;10.15;3.33;;;;;;;14.72;57.21;100774.69;5049880;28;20080;-55
2023/01/01 00:55:01;;;;;;;12.43;3.30;;;;;;;14.68;56.88;100768.81;5048743;28;20029;-57
2023/01/01 00:57:26;;;;;;;14.82;3.10;;;;;;;14.71;56.37;100781.06;5046390;28;20029;-57
2023/01/01 00:59:52;;;;;;;9.77;3.05;;;;;;;14.69;56.49;100823.97;5049371;28;20055;-56
2023/01/01 01:02:17;;;;;;;17.55;3.45;;;;;;;14.71;56.02;100789.91;5048885;28;20052;-57
2023/01/01 01:04:42;;;;;;;11.05;2.90;;;;;;;14.72;55.82;100796.94;5049847;28;20383;-54
2023/01/01 01:07:07;;;;;;;11.57;2.85;;;;;;;14.71;56.10;100803.28;5050721;28;20036;-57
2023/01/01 01:09:33;;;;;;;8.80;3.00;;;;;;;14.71;56.27;100811.28;5047547;28;20020;-55
2023/01/01 01:11:58;;;;;;;10.50;2.80;;;;;;;14.67;56.67;100806.38;5051475;28;20539;-56
2023/01/01 01:14:23;;;;;;;9.68;2.83;;;;;;;14.67;56.53;100785.84;5055668;28;20100;-56
2023/01/01 01:16:48;;;;;;;10.40;3.78;;;;;;;14.64;57.02;100790.63;5053874;28;20087;-57
2023/01/01 01:19:17;;;;;;;12.32;2.97;;;;;;;14.57;57.88;100791.19;5055008;28;20444;-55
2023/01/01 01:21:43;;;;;;;11.55;3.20;;;;;;;14.56;57.56;100792.16;5049875;28;20021;-56
2023/01/01 01:24:09;;;;;;;9.00;2.65;;;;;;;14.53;57.85;100791.63;5055351;28;20029;-54
2023/01/01 01:26:35;;;;;;;10.93;2.85;;;;;;;14.52;57.65;100800.63;5054566;28;20083;-56
2023/01/01 01:29:01;;;;;;;9.27;3.05;;;;;;;14.53;57.33;100813.00;5042227;28;20383;-56
2023/01/01 01:31:29;;;;;;;9.02;2.92;;;;;;;14.49;57.83;100811.59;5055173;28;20032;-58
2023/01/01 01:33:56;;;;;;;11.68;3.20;;;;;;;14.46;57.36;100827.94;5055174;28;20118;-55
2023/01/01 01:36:21;;;;;;;12.15;3.10;;;;;;;14.43;57.32;100816.53;5055167;28;20025;-56
2023/01/01 01:38:47;;;;;;;12.43;2.90;;;;;;;14.41;57.54;100820.34;5054545;28;20035;-56
2023/01/01 01:41:15;;;;;;;8.40;2.75;;;;;;;14.37;57.73;100832.28;5054905;28;20037;-55
2023/01/01 01:43:40;;;;;;;10.35;2.95;;;;;;;14.35;57.02;100818.22;5055046;28;20087;-55
2023/01/01 01:46:11;;;;;;;15.17;3.53;;;;;;;14.35;56.95;100810.22;5053893;28;20471;-57
2023/01/01 01:48:41;;;;;;;10.43;3.00;;;;;;;14.29;57.52;100824.13;5048873;28;20040;-56
2023/01/01 01:51:07;;;;;;;10.75;2.75;;;;;;;14.28;56.87;100834.00;5053993;28;20083;-55
2023/01/01 01:53:37;;;;;;;11.23;2.65;;;;;;;14.25;57.17;100831.59;5062607;28;20028;-56
2023/01/01 01:56:06;;;;;;;8.30;2.40;;;;;;;14.24;56.96;100840.63;5055680;28;20490;-57
2023/01/01 01:58:33;;;;;;;8.55;2.75;;;;;;;14.22;57.29;100839.88;5054261;28;20060;-56
2023/01/01 02:00:59;;;;;;;9.63;2.70;;;;;;;14.23;57.07;100855.78;5054670;28;20028;-55
2023/01/01 02:03:36;;;;;;;9.18;2.53;;;;;;;14.19;58.11;100853.56;5054343;28;20479;-56
2023/01/01 02:06:02;;;;;;;7.55;3.33;;;;;;;14.17;57.46;100855.50;5052601;28;20013;-56
2023/01/01 02:08:28;;;;;;;11.85;3.08;;;;;;;14.14;57.76;100863.78;5054973;28;20059;-55
2023/01/01 02:10:54;;;;;;;9.80;2.60;;;;;;;14.13;57.79;100867.47;5054248;28;20028;-56
2023/01/01 02:13:19;;;;;;;7.95;2.80;;;;;;;14.10;56.95;100860.56;5053853;28;20025;-55
2023/01/01 02:15:53;;;;;;;9.02;2.95;;;;;;;14.04;57.98;100853.13;5054142;28;20033;-56
2023/01/01 02:18:24;;;;;;;12.20;2.70;;;;;;;14.09;57.17;100860.69;5053193;28;20682;-56
2023/01/01 02:21:01;;;;;;;9.95;3.13;;;;;;;14.09;56.60;100864.22;5053479;28;20082;-56
2023/01/01 02:23:47;;;;;;;6.68;2.63;;;;;;;14.09;56.93;100845.53;5052209;28;20067;-57
2023/01/01 02:26:42;;;;;;;8.32;2.58;;;;;;;14.08;57.88;100862.53;5054333;28;20086;-57
2023/01/01 02:29:29;;;;;;;10.82;2.95;;;;;;;14.04;58.18;100859.31;5048522;28;20037;-57
2023/01/01 02:31:57;;;;;;;8.55;2.53;;;;;;;14.05;57.09;100863.66;5060995;28;20025;-57
2023/01/01 02:34:28;;;;;;;8.48;2.47;;;;;;;14.06;56.77;100851.16;5039262;28;20051;-57
2023/01/01 02:36:56;;;;;;;7.40;2.30;;;;;;;14.04;57.05;100853.97;5052352;28;20049;-57
2023/01/01 02:39:25;;;;;;;8.15;2.67;;;;;;;14.03;57.18;100865.63;5054267;28;20029;-57
2023/01/01 02:41:54;;;;;;;7.78;2.47;;;;;;;14.03;56.96;100862.13;5052791;28;20435;-57
2023/01/01 02:44:21;;;;;;;8.83;2.40;;;;;;;14.01;57.35;100862.25;5047385;28;20407;-57
2023/01/01 02:46:47;;;;;;;8.23;2.30;;;;;;;14.00;57.42;100849.88;5052914;28;20102;-57
2023/01/01 02:49:12;;;;;;;13.98;2.80;;;;;;;14.02;57.32;100847.06;5053802;28;20474;-55
2023/01/01 02:51:49;;;;;;;7.35;2.28;;;;;;;13.99;57.90;100876.72;5052139;28;20092;-56
2023/01/01 02:54:17;;;;;;;5.35;1.88;;;;;;;13.99;57.67;100876.72;5053028;28;20039;-55
2023/01/01 02:57:09;;;;;;;11.25;3.30;;;;;;;13.97;58.78;100868.88;5048364;28;20100;-54
2023/01/01 03:03:08;;;;;;;8.02;2.25;;;;;;;13.91;59.68;100868.56;5050281;28;20044;-57
2023/01/01 03:09:11;;;;;;;11.27;2.20;;;;;;;13.90;59.85;100886.41;5049987;28;20063;-56
2023/01/01 03:12:05;;;;;;;5.53;2.30;;;;;;;13.90;59.45;100883.72;5053008;28;20059;-57
2023/01/01 03:14:33;;;;;;;9.48;2.55;;;;;;;13.88;59.36;100873.19;5052925;28;20025;-56
2023/01/01 03:17:16;;;;;;;7.28;2.67;;;;;;;13.86;59.80;100885.84;5053448;28;20056;-57
2023/01/01 03:19:43;;;;;;;8.50;2.13;;;;;;;13.86;59.25;100885.00;5052555;28;20024;-57
2023/01/01 03:22:15;;;;;;;7.35;2.10;;;;;;;13.86;59.83;100891.19;5052382;28;20032;-54
2023/01/01 03:24:47;;;;;;;6.93;2.00;;;;;;;13.82;60.20;100897.78;5053230;28;20487;-56
2023/01/01 03:27:34;;;;;;;7.38;2.35;;;;;;;13.80;60.91;100888.22;5044940;28;20040;-57
2023/01/01 03:30:07;;;;;;;7.68;2.08;;;;;;;13.77;60.10;100899.16;5048236;28;20033;-56
2023/01/01 03:35:25;;;;;;;7.10;1.80;;;;;;;13.74;60.28;100868.28;5052028;28;20243;-56
2023/01/01 03:37:54;;;;;;;7.80;2.20;;;;;;;13.73;60.89;100876.41;5051662;28;20029;-56
2023/01/01 03:40:20;;;;;;;8.40;2.25;;;;;;;13.76;60.29;100894.81;5051466;28;20024;-57
2023/01/01 03:42:54;;;;;;;5.30;1.90;;;;;;;13.76;60.54;100894.81;5051611;28;20021;-58
2023/01/01 03:45:25;;;;;;;8.73;2.53;;;;;;;13.75;61.20;100917.97;5052700;28;20037;-57
2023/01/01 03:47:51;;;;;;;6.53;1.95;;;;;;;13.73;60.65;100914.63;5052361;28;20493;-57
2023/01/01 03:50:18;;;;;;;7.78;2.47;;;;;;;13.73;61.10;100909.28;5052251;28;20021;-57
2023/01/01 03:52:56;;;;;;;7.93;1.90;;;;;;;13.75;61.18;100912.66;5048320;28;20068;-56
2023/01/01 03:55:44;;;;;;;7.28;2.50;;;;;;;13.76;60.72;100909.00;5052558;28;20020;-57
2023/01/01 03:58:38;;;;;;;6.00;2.23;;;;;;;13.76;61.47;100914.34;5040598;28;20045;-57
2023/01/01 04:01:12;;;;;;;5.05;2.10;;;;;;;13.72;61.55;100918.25;5034720;28;20022;-57
2023/01/01 04:03:40;;;;;;;6.05;2.03;;;;;;;13.73;61.47;100922.63;5032410;28;20056;-57
2023/01/01 04:06:06;;;;;;;10.25;2.65;;;;;;;13.70;61.88;100928.22;5038350;28;20035;-56
2023/01/01 04:08:33;;;;;;;6.55;2.10;;;;;;;13.70;62.15;100933.56;5051058;28;20478;-57
2023/01/01 04:12:00;;;;;;;7.50;2.38;;;;;;;13.66;62.56;100918.81;5050358;28;20032;-56
2023/01/01 04:13:47;;;;;;;;;;;;;;;13.72;62.90;100938.78;5052309;28;20063;-56
2023/01/01 04:16:13;;;;;;;6.28;2.05;;;;;;;13.66;62.38;100927.66;5052354;28;19913;-57
2023/01/01 04:18:38;;;;;;;11.48;2.60;;;;;;;13.67;62.36;100928.50;5051332;28;20466;-55
2023/01/01 04:21:04;;;;;;;7.45;2.22;;;;;;;13.65;62.62;100938.47;5051248;28;20065;-56
2023/01/01 04:23:29;;;;;;;11.40;3.45;;;;;;;13.64;62.59;100926.13;5052019;28;20021;-54
2023/01/01 04:25:54;;;;;;;8.88;2.22;;;;;;;13.60;63.28;100922.84;5052632;28;20036;-57
2023/01/01 04:28:19;;;;;;;7.43;2.10;;;;;;;13.61;63.35;100926.38;5051956;28;20032;-57
2023/01/01 04:30:45;;;;;;;8.63;2.37;;;;;;;13.58;63.41;100918.66;5050744;28;20025;-57
2023/01/01 04:33:10;;;;;;;10.93;2.40;;;;;;;13.54;63.66;100928.75;5051400;28;20267;-58
2023/01/01 04:35:35;;;;;;;7.85;2.75;;;;;;;13.53;63.85;100924.38;5039560;28;20586;-57
2023/01/01 04:38:02;;;;;;;7.45;2.33;;;;;;;13.50;64.18;100938.81;5050970;28;20025;-56
2023/01/01 04:40:27;;;;;;;9.82;2.40;;;;;;;13.50;64.51;100940.66;5051595;28;20021;-58
2023/01/01 04:42:53;;;;;;;9.85;2.42;;;;;;;13.50;64.11;100938.81;5054534;28;20027;-57
2023/01/01 04:45:18;;;;;;;9.10;2.63;;;;;;;13.47;64.64;100946.25;5058341;28;20043;-57
2023/01/01 04:47:44;;;;;;;9.23;2.47;;;;;;;13.46;65.03;100952.59;5054175;28;20033;-57
2023/01/01 04:50:09;;;;;;;9.30;2.30;;;;;;;13.44;64.96;100950.06;5044670;28;20032;-57
2023/01/01 04:52:36;;;;;;;7.43;2.50;;;;;;;13.42;65.26;100956.50;5057987;28;20025;-58
2023/01/01 04:55:01;;;;;;;6.22;2.38;;;;;;;13.41;65.51;100957.50;5058385;28;20070;-57
2023/01/01 04:57:29;;;;;;;6.07;2.25;;;;;;;13.42;65.51;100959.16;5057620;28;20025;-56
2023/01/01 04:59:54;;;;;;;11.68;2.33;;;;;;;13.40;65.88;100964.63;5057958;28;20059;-56
2023/01/01 05:02:19;;;;;;;6.50;2.10;;;;;;;13.39;66.30;100967.41;5057713;28;20383;-56
2023/01/01 05:04:45;;;;;;;6.97;1.98;;;;;;;13.37;66.20;100980.06;5058638;28;20077;-57
2023/01/01 05:07:10;;;;;;;7.93;2.22;;;;;;;13.37;66.02;100980.91;5058010;28;20470;-57
2023/01/01 05:09:35;;;;;;;7.78;2.58;;;;;;;13.36;66.57;100987.22;5046399;28;20041;-55
2023/01/01 05:12:01;;;;;;;7.28;2.65;;;;;;;13.33;66.80;100988.31;5056678;28;20104;-57
2023/01/01 05:14:26;;;;;;;10.55;2.63;;;;;;;13.32;67.24;100985.78;5047287;28;20483;-58
2023/01/01 05:16:52;;;;;;;7.38;2.58;;;;;;;13.32;66.99;100989.31;5055951;28;20059;-57
2023/01/01 05:19:17;;;;;;;5.38;2.50;;;;;;;13.30;67.40;100995.72;5058170;28;20057;-56
2023/01/01 05:21:44;;;;;;;7.65;2.47;;;;;;;13.29;67.33;101005.56;5057956;28;20025;-57
2023/01/01 05:24:10;;;;;;;7.18;2.55;;;;;;;13.29;67.68;101018.06;5058220;28;20036;-57
2023/01/01 05:26:39;;;;;;;7.82;2.22;;;;;;;13.27;67.28;101026.19;5057503;28;20035;-56
2023/01/01 05:29:04;;;;;;;;;;;;;;;13.31;67.96;101037.44;5058662;28;20029;-57
2023/01/01 05:31:32;;;;;;;7.40;2.30;;;;;;;13.26;67.88;101034.31;5057434;28;20268;-57
2023/01/01 05:33:57;;;;;;;5.47;2.22;;;;;;;13.24;68.36;101050.44;5058088;28;20487;-56
2023/01/01 05:36:28;;;;;;;13.38;2.85;;;;;;;13.24;68.08;101044.25;5057756;28;20023;-56
2023/01/01 05:38:54;;;;;;;9.95;2.85;;;;;;;13.23;68.17;101053.25;5057505;28;20104;-55
2023/01/01 05:41:20;;;;;;;9.43;2.30;;;;;;;13.23;68.12;101040.75;5057753;28;20108;-58
2023/01/01 05:43:46;;;;;;;5.63;2.38;;;;;;;13.22;68.58;101052.41;5057544;28;20024;-56
2023/01/01 05:46:15;;;;;;;5.80;2.20;;;;;;;13.21;68.79;101050.69;5058201;28;20428;-57
2023/01/01 05:48:40;;;;;;;8.67;3.00;;;;;;;13.22;68.56;101059.53;5057905;28;20357;-57
2023/01/01 05:51:12;;;;;;;8.32;2.33;;;;;;;13.18;68.98;101061.63;5057911;28;20282;-57
2023/01/01 05:53:38;;;;;;;8.23;2.38;;;;;;;13.20;69.08;101067.66;5056922;28;20131;-56
2023/01/01 05:56:03;;;;;;;9.70;2.40;;;;;;;13.18;69.68;101068.78;5054353;28;20047;-55
2023/01/01 05:58:30;;;;;;;11.07;2.60;;;;;;;13.17;69.73;101077.75;5054009;28;20147;-56
2023/01/01 06:00:55;;;;;;;5.97;2.60;;;;;;;13.18;69.86;101084.78;5054795;28;20040;-55
2023/01/01 06:03:21;;;;;;;10.32;2.38;;;;;;;13.16;69.63;101084.91;5054210;28;20057;-56
2023/01/01 06:05:47;;;;;;;9.50;2.55;;;;;;;13.14;69.79;101084.19;5054770;28;20035;-57
2023/01/01 06:08:12;;;;;;;8.07;2.53;;;;;;;13.12;70.29;101080.78;5053549;28;20061;-57
2023/01/01 06:10:38;;;;;;;9.77;2.60;;;;;;;13.09;70.03;101092.59;5041767;28;20040;-57
2023/01/01 06:13:03;;;;;;;10.00;2.55;;;;;;;13.07;70.26;101099.88;5053606;28;20379;-58
2023/01/01 06:15:29;;;;;;;6.22;2.40;;;;;;;13.07;70.49;101101.66;5054523;28;20032;-53
2023/01/01 06:17:54;;;;;;;7.05;2.10;;;;;;;13.06;70.36;101103.50;5053353;28;20583;-57
2023/01/01 06:20:20;;;;;;;10.10;2.88;;;;;;;13.06;70.36;101110.66;5054373;28;20021;-55
2023/01/01 06:22:45;;;;;;;8.68;2.58;;;;;;;13.04;70.80;101116.13;5053404;28;20040;-55
2023/01/01 06:25:11;;;;;;;9.25;2.50;;;;;;;13.02;71.64;101128.72;5054222;28;20021;-54
2023/01/01 06:27:36;;;;;;;13.85;2.60;;;;;;;12.99;73.58;101157.44;5053494;28;20029;-55
2023/01/01 06:30:06;;;;;;;10.80;2.90;;;;;;;12.88;77.25;101164.50;5053993;28;20032;-56
2023/01/01 06:32:32;;;;;;;7.68;3.17;;;;;;;12.70;79.56;101171.34;5053426;28;20040;-57
2023/01/01 06:34:57;;;;;;;11.30;2.30;;;;;;;12.55;80.83;101176.06;5054164;28;20064;-57
2023/01/01 06:37:22;;;;;;;6.47;2.42;;;;;;;12.44;81.71;101181.41;5054092;28;20068;-57
2023/01/01 06:39:48;;;;;;;7.88;2.63;;;;;;;12.32;82.05;101173.44;5053470;28;20048;-55
2023/01/01 06:42:14;;;;;;;11.25;2.70;;;;;;;12.24;83.09;101185.63;5053581;28;20025;-57
2023/01/01 06:44:39;;;;;;;8.38;2.60;;;;;;;12.15;83.86;101184.53;5053307;28;20025;-55
2023/01/01 06:47:04;;;;;;;7.20;3.10;;;;;;;12.08;85.45;101196.66;5053409;28;20073;-55
2023/01/01 06:49:30;;;;;;;8.73;3.08;;;;;;;11.99;87.31;101198.19;5054011;28;20028;-55
2023/01/01 06:51:55;;;;;;;7.70;3.35;;;;;;;11.93;88.03;101211.97;5052450;28;20040;-56
2023/01/01 06:54:20;;;;;;;6.90;3.40;;;;;;;11.84;88.95;101213.50;5046133;28;20039;-55
2023/01/01 06:56:46;;;;;;;8.40;3.20;;;;;;;11.79;89.90;101220.97;5046307;28;20029;-55
2023/01/01 06:59:11;;;;;;;6.82;2.67;;;;;;;11.71;90.63;101218.91;5053084;28;20033;-55
2023/01/01 07:01:40;;;;;;;6.72;2.70;;;;;;;11.65;91.14;101217.53;5052915;28;20025;-56
2023/01/01 07:04:10;;;;;;;10.63;2.90;;;;;;;11.59;92.08;101230.44;5042902;28;20039;-53
2023/01/01 07:06:36;;;;;;;7.20;2.70;;;;;;;11.56;93.23;101230.69;5041950;28;20098;-53
2023/01/01 07:09:02;;;;;;;8.05;2.90;;;;;;;11.50;93.52;101223.16;5053385;28;20471;-56
2023/01/01 07:11:28;;;;;;;10.13;2.88;;;;;;;11.44;94.38;101227.97;5053491;28;20108;-55
2023/01/01 07:13:53;;;;;;;8.68;2.70;;;;;;;11.40;94.79;101238.97;5040660;28;20539;-53
2023/01/01 07:16:19;;;;;;;7.55;2.38;;;;;;;11.36;94.17;101245.44;5052156;28;20044;-55
2023/01/01 07:18:45;;;;;;;7.85;2.20;;;;;;;11.32;93.23;101228.03;5052527;28;20028;-55
2023/01/01 07:21:32;;;;;;;7.13;2.63;;;;;;;11.30;91.82;101234.31;5049090;28;20029;-55
2023/01/01 07:24:03;;;;;;;7.00;1.80;;;;;;;11.23;91.27;101225.09;5047535;28;20029;-53
2023/01/01 07:26:30;;;;;;;7.30;2.20;;;;;;;11.19;89.49;101241.38;5051541;28;20506;-55
2023/01/01 07:28:56;;;;;;;5.13;1.60;;;;;;;11.15;89.70;101246.06;5043431;28;20029;-53
2023/01/01 07:31:21;;;;;;;7.60;2.00;;;;;;;11.12;90.34;101254.25;5043299;28;20497;-53
2023/01/01 07:33:47;;;;;;;5.90;1.75;;;;;;;11.09;90.70;101251.81;5034027;28;20037;-56
2023/01/01 07:36:12;;;;;;;8.30;2.08;;;;;;;11.07;91.29;101267.03;5041402;28;20039;-55
2023/01/01 07:38:37;;;;;;;6.70;2.30;;;;;;;11.03;92.11;101271.72;5043744;28;20075;-53
2023/01/01 07:41:03;;;;;;;8.75;2.20;;;;;;;11.00;92.60;101263.13;5035658;28;20026;-52
2023/01/01 07:43:28;;;;;;;9.45;2.60;;;;;;;10.96;92.99;101269.59;5045119;28;20048;-53
2023/01/01 07:45:53;;;;;;;6.15;1.90;;;;;;;10.93;94.04;101282.16;5043852;28;20491;-54
2023/01/01 07:48:19;;;;;;;8.88;2.10;;;;;;;10.90;94.56;101285.03;5045594;28;20475;-55
2023/01/01 07:50:44;;;;;;;8.50;1.88;;;;;;;10.86;95.56;101294.19;5044749;28;20071;-52
2023/01/01 07:53:10;;;;;;;7.80;2.60;;;;;;;10.83;96.38;101289.09;5048640;28;20052;-53
2023/01/01 07:55:35;;;;;;;7.85;1.92;;;;;;;10.82;97.70;101298.00;5046863;28;20037;-53
2023/01/01 07:58:01;;;;;;;5.70;1.88;;;;;;;10.79;98.19;101294.72;5048470;28;20134;-52
2023/01/01 08:00:27;;;;;;;7.70;2.38;;;;;;;10.75;98.46;101302.06;5046315;28;20040;-53
2023/01/01 08:02:52;;;;;;;11.98;2.65;;;;;;;10.73;99.57;101320.78;5044438;28;20044;-56
2023/01/01 08:05:18;;;;;;;10.45;2.53;;;;;;;10.71;99.98;101341.28;5046739;28;20035;-52
2023/01/01 08:07:48;;;;;;;7.72;2.63;;;;;;;10.71;100.00;101340.44;5044574;28;20037;-54
2023/01/01 08:10:14;;;;;;;12.93;1.88;;;;;;;10.68;100.00;101345.97;5043888;28;20064;-52
2023/01/01 08:12:39;;;;;;;8.82;2.13;;;;;;;10.66;100.00;101338.09;5045174;28;20041;-54
2023/01/01 08:15:05;;;;;;;8.02;2.30;;;;;;;10.64;100.00;101355.97;5046587;28;20498;-52
2023/01/01 08:17:30;;;;;;;7.25;2.45;;;;;;;10.63;100.00;101348.09;5040162;28;20106;-53
2023/01/01 08:19:56;;;;;;;8.13;2.38;;;;;;;10.63;100.00;101348.09;5045937;28;20427;-54
2023/01/01 08:22:21;;;;;;;9.80;2.60;;;;;;;10.63;100.00;101337.47;5042207;28;20048;-54
2023/01/01 08:24:46;;;;;;;6.18;2.30;;;;;;;10.62;100.00;101344.56;5046478;28;20517;-53
2023/01/01 08:27:13;;;;;;;6.47;2.33;;;;;;;10.61;100.00;101345.53;5047844;28;20024;-56
2023/01/01 08:29:38;;;;;;;8.25;2.90;;;;;;;10.61;100.00;101348.19;5046540;28;20025;-54
2023/01/01 08:32:04;;;;;;;14.93;3.50;;;;;;;10.62;100.00;101357.84;5045726;28;20036;-54
2023/01/01 08:34:29;;;;;;;9.40;2.25;;;;;;;10.62;100.00;101364.97;5044533;28;20025;-54
2023/01/01 08:36:55;;;;;;;11.65;2.50;;;;;;;10.63;100.00;101354.25;5045199;28;20040;-55
2023/01/01 08:39:20;;;;;;;8.43;2.65;;;;;;;10.61;100.00;101374.75;5043416;28;20045;-56
2023/01/01 08:41:45;;;;;;;6.93;2.72;;;;;;;10.62;100.00;101367.63;5045366;28;20112;-52
2023/01/01 08:44:10;;;;;;;10.23;2.70;;;;;;;10.61;100.00;101389.81;5047725;28;20076;-52
2023/01/01 08:46:36;;;;;;;12.38;2.90;;;;;;;10.61;100.00;101384.50;5048913;28;20052;-54
2023/01/01 08:49:01;;;;;;;10.02;2.63;;;;;;;10.58;100.00;101374.97;5049006;28;20451;-53
2023/01/01 08:51:26;;;;;;;6.15;2.47;;;;;;;10.58;100.00;101369.66;5049548;28;20497;-54
2023/01/01 08:53:51;;;;;;;9.93;3.17;;;;;;;10.58;100.00;101387.41;5048423;28;20518;-57
2023/01/01 08:56:18;;;;;;;7.95;2.40;;;;;;;10.57;100.00;101404.28;5046362;28;20121;-54
2023/01/01 08:58:43;;;;;;;9.98;2.50;;;;;;;10.55;100.00;101394.59;5047854;28;20091;-52
2023/01/01 09:01:09;;;;;;;10.02;2.92;;;;;;;10.57;100.00;101393.66;5043263;28;20021;-55
2023/01/01 09:03:35;;;;;;;7.90;2.15;;;;;;;10.57;100.00;101388.34;5047415;28;20046;-56
2023/01/01 09:06:01;;;;;;;10.15;2.60;;;;;;;10.55;100.00;101367.19;5045339;28;20057;-55
2023/01/01 09:08:26;;;;;;;7.57;2.63;;;;;;;10.57;100.00;101372.41;5042457;28;20133;-54
2023/01/01 09:10:56;;;;;;;7.78;3.00;;;;;;;10.55;100.00;101383.97;5046660;28;20074;-51
2023/01/01 09:13:21;;;;;;;9.65;2.63;;;;;;;10.57;100.00;101391.00;5045216;28;20053;-54
2023/01/01 09:15:46;;;;;;;11.02;2.50;;;;;;;10.57;100.00;101399.81;5048173;28;20654;-54
2023/01/01 09:18:12;;;;;;;8.00;2.78;;;;;;;10.58;100.00;101408.66;5046254;28;20045;-51
2023/01/01 09:20:38;;;;;;;10.77;3.40;;;;;;;10.58;100.00;101401.53;5047672;28;20025;-52
2023/01/01 09:23:04;;;;;;;9.50;3.03;;;;;;;10.58;100.00;101390.06;5045312;28;20059;-52
2023/01/01 09:25:30;;;;;;;9.88;3.00;;;;;;;10.57;100.00;101383.03;5046244;28;20037;-54
2023/01/01 09:28:06;;;;;;;11.20;2.88;;;;;;;10.58;100.00;101398.03;5048515;28;20036;-52
2023/01/01 09:30:31;;;;;;;9.60;2.60;;;;;;;10.57;100.00;101402.47;5055912;28;20107;-52
2023/01/01 09:32:57;;;;;;;10.98;3.22;;;;;;;10.59;100.00;101413.00;5056584;28;20056;-51
2023/01/01 09:35:22;;;;;;;10.80;3.15;;;;;;;10.60;100.00;101401.44;5057606;28;20035;-50
2023/01/01 09:37:47;;;;;;;8.18;2.72;;;;;;;10.60;100.00;101409.41;5057007;28;20082;-51
2023/01/01 09:40:40;;;;;;;10.98;2.80;;;;;;;10.59;100.00;101411.22;5066915;28;20386;-51
2023/01/01 09:43:27;;;;;;;9.80;3.15;;;;;;;10.61;100.00;101406.63;5054009;28;20087;-52
2023/01/01 09:46:10;;;;;;;10.07;3.00;;;;;;;10.59;100.00;101405.03;5045321;28;20098;-52
2023/01/01 09:48:48;;;;;;;8.43;2.92;;;;;;;10.58;100.00;101412.16;5039889;28;20220;-52
2023/01/01 09:51:18;;;;;;;10.90;3.42;;;;;;;10.60;100.00;101412.06;5036145;28;20021;-52
2023/01/01 09:53:52;;;;;;;10.40;2.90;;;;;;;10.60;100.00;101417.38;5038867;28;20025;-55
2023/01/01 09:56:23;;;;;;;11.35;3.17;;;;;;;10.59;100.00;101419.19;5049359;28;20025;-54
2023/01/01 09:58:49;;;;;;;9.70;3.65;;;;;;;10.59;100.00;101413.88;5050729;28;20170;-52
2023/01/01 10:02:11;;;;;;;11.52;3.58;;;;;;;10.60;100.00;101404.09;5050879;28;20100;-54
2023/01/01 10:04:57;;;;;;;10.80;3.83;;;;;;;10.58;100.00;101406.00;5048618;28;20088;-54
2023/01/01 10:07:38;;;;;;;13.25;3.92;;;;;;;10.57;100.00;101412.25;5047106;28;20040;-54
2023/01/01 10:10:30;;;;;;;11.05;4.30;;;;;;;10.57;100.00;101412.25;5051667;28;20033;-55
2023/01/01 10:13:09;;;;;;;10.73;3.50;;;;;;;10.52;100.00;101410.78;5041403;28;20622;-54
2023/01/01 10:15:39;;;;;;;8.40;3.50;;;;;;;10.52;100.00;101405.47;5018680;28;20150;-55
2023/01/01 10:18:15;;;;;;;14.68;4.13;;;;;;;10.53;100.00;101407.16;5038749;28;20064;-56
2023/01/01 10:20:53;;;;;;;15.25;3.75;;;;;;;10.55;100.00;101407.88;5043823;28;20044;-55
2023/01/01 10:23:25;;;;;;;14.27;3.88;;;;;;;10.58;100.00;101409.50;5048592;28;20098;-56
2023/01/01 10:25:52;;;;;;;15.98;3.83;;;;;;;10.59;100.00;101410.34;5039062;28;20070;-51
2023/01/01 10:28:32;;;;;;;15.70;4.20;;;;;;;10.62;100.00;101415.44;5039911;28;20029;-54
2023/01/01 10:31:18;;;;;;;13.20;4.28;;;;;;;10.64;100.00;101405.56;5035870;28;20083;-53
2023/01/01 10:33:45;;;;;;;10.85;4.25;;;;;;;10.66;100.00;101417.81;5034889;28;20018;-55
2023/01/01 10:36:13;;;;;;;11.15;4.03;;;;;;;10.70;100.00;101410.47;5043059;28;20037;-54
2023/01/01 10:38:39;;;;;;;13.30;4.88;;;;;;;10.74;100.00;101406.63;5032456;28;20032;-53
2023/01/01 10:41:09;;;;;;;15.98;3.83;;;;;;;10.78;100.00;101401.97;5040692;28;20021;-52
2023/01/01 10:43:35;;;;;;;11.90;3.97;;;;;;;10.82;100.00;101406.97;5036281;28;20260;-51
2023/01/01 10:46:02;;;;;;;10.98;3.90;;;;;;;10.86;100.00;101407.63;5039521;28;20531;-54
2023/01/01 10:48:29;;;;;;;10.70;3.67;;;;;;;10.90;100.00;101409.09;5038302;28;20025;-55
2023/01/01 10:51:15;;;;;;;10.77;3.63;;;;;;;10.97;100.00;101410.38;5036909;28;20082;-55
2023/01/01 10:53:49;;;;;;;14.13;3.90;;;;;;;11.02;100.00;101402.09;5044106;28;20471;-56
2023/01/01 10:56:17;;;;;;;13.10;3.53;;;;;;;11.03;100.00;101396.66;5032822;28;20057;-56
2023/01/01 10:58:44;;;;;;;10.93;3.78;;;;;;;11.09;100.00;101401.56;5040120;28;20387;-55
2023/01/01 11:01:20;;;;;;;12.70;3.70;;;;;;;11.16;100.00;101403.75;5043235;28;20442;-55
2023/01/01 11:04:00;;;;;;;14.02;3.33;;;;;;;11.22;100.00;101408.66;5046676;28;20025;-52
2023/01/01 11:06:32;;;;;;;;;;;;;;;11.30;100.00;101414.28;5045257;28;20049;-55
2023/01/01 11:09:02;;;;;;;11.23;3.70;;;;;;;11.35;99.50;101412.16;5047995;28;19916;-53
2023/01/01 11:11:41;;;;;;;12.45;3.63;;;;;;;11.40;99.67;101415.34;5048857;28;20479;-56
2023/01/01 11:14:18;;;;;;;12.25;3.78;;;;;;;11.44;98.85;101423.94;5050927;28;20116;-55
2023/01/01 11:16:45;;;;;;;14.07;3.53;;;;;;;11.49;99.56;101427.16;5045371;28;20053;-56
2023/01/01 11:19:26;;;;;;;11.45;3.17;;;;;;;11.53;98.74;101430.44;5048378;28;20083;-54
2023/01/01 11:21:51;;;;;;;14.43;3.85;;;;;;;11.57;97.49;101439.88;5047743;28;20495;-54
2023/01/01 11:24:21;;;;;;;10.50;3.47;;;;;;;11.59;97.58;101441.50;5046699;28;20067;-53
2023/01/01 11:26:47;;;;;;;12.43;3.63;;;;;;;11.63;95.88;101440.31;5048834;28;20041;-54
2023/01/01 11:29:15;;;;;;;11.13;3.70;;;;;;;11.68;97.07;101429.34;5048362;28;20033;-54
2023/01/01 11:31:43;;;;;;;12.32;3.67;;;;;;;11.72;95.48;101433.47;5054422;28;20140;-53
2023/01/01 11:34:35;;;;;;;9.25;2.80;;;;;;;11.78;95.71;101434.84;5037963;28;20026;-52
2023/01/01 11:37:12;;;;;;;14.55;3.30;;;;;;;11.84;95.75;101434.41;5037591;28;20033;-54
2023/01/01 11:39:43;;;;;;;11.05;3.05;;;;;;;11.85;94.74;101430.78;5040827;28;20090;-55